Pascola, Missouri
Current Conditions -  °F | °C
As of 2:53 PM on Tuesday 21 Oct 2014 (Local Time) from KHKA Reporting Station
Clear Clear  
Wind Chill: 78°   Ceiling: Unl
Heat Index: 78°   Visibility: 10mi
Dew Point: 46°   Wind: 5mph
Humidity: 32%   Direction: 330°NNW
Pressure: 30.06"   Gusts: NA
Location:  36.27°N, 89.83°W
Report Text: KHKA 211953Z AUTO 33004KT 10SM CLR 26/08 A3006 RMK AO2 SLP177 T02560078
Loading
Personal Weather Stations






























Interactive Weather Map
Tropical Storm Tracking
New forecast layout! Learn more

10-Day Weather Forecast

Advertisements
Track Severe Weather on mobile